createdAt,value
2022-10-28T00:00:57.651Z,2.80
2022-10-28T00:03:26.203Z,2.90
2022-10-28T00:05:55.076Z,2.60
2022-10-28T00:08:23.623Z,3.20
2022-10-28T00:10:52.738Z,2.47
2022-10-28T00:13:22.541Z,2.50
2022-10-28T00:15:51.137Z,2.73
2022-10-28T00:18:19.733Z,2.60
2022-10-28T00:20:48.298Z,2.17
2022-10-28T00:23:16.856Z,2.07
2022-10-28T00:25:45.395Z,1.93
2022-10-28T00:28:13.930Z,2.37
2022-10-28T00:30:43.925Z,2.13
2022-10-28T00:33:12.463Z,2.33
2022-10-28T00:35:40.922Z,2.13
2022-10-28T00:38:09.512Z,2.03
2022-10-28T00:40:38.266Z,1.73
2022-10-28T00:43:06.734Z,2.07
2022-10-28T00:45:35.418Z,1.73
2022-10-28T00:48:06.702Z,2.00
2022-10-28T00:50:45.230Z,1.97
2022-10-28T00:53:17.211Z,1.70
2022-10-28T00:55:46.637Z,1.70
2022-10-28T00:58:15.813Z,1.90
2022-10-28T01:00:44.501Z,1.80
2022-10-28T01:03:14.465Z,1.50
2022-10-28T01:05:44.157Z,2.20
2022-10-28T01:08:12.751Z,1.97
2022-10-28T01:10:56.106Z,1.67
2022-10-28T01:13:28.481Z,1.67
2022-10-28T01:16:00.031Z,1.80
2022-10-28T01:18:34.184Z,1.90
2022-10-28T01:21:16.789Z,2.37
2022-10-28T01:23:49.284Z,1.70
2022-10-28T01:26:41.173Z,1.70
2022-10-28T01:29:24.449Z,1.90
2022-10-28T01:31:56.222Z,2.20
2022-10-28T01:34:29.397Z,2.00
2022-10-28T01:37:00.024Z,2.00
2022-10-28T01:39:32.714Z,2.20
2022-10-28T01:42:04.481Z,2.03
2022-10-28T01:44:36.192Z,2.00
2022-10-28T01:47:09.215Z,2.07
2022-10-28T01:49:42.522Z,2.23
2022-10-28T01:52:13.773Z,2.53
2022-10-28T01:54:43.842Z,2.40
2022-10-28T01:57:12.784Z,3.47
2022-10-28T01:59:41.817Z,2.50
2022-10-28T02:02:11.803Z,2.70
2022-10-28T02:04:40.280Z,2.23
2022-10-28T02:07:08.862Z,2.37
2022-10-28T02:09:44.154Z,2.37
2022-10-28T02:12:20.782Z,2.53
2022-10-28T02:15:00.722Z,2.60
2022-10-28T02:17:33.921Z,2.90
2022-10-28T02:20:05.421Z,2.63
2022-10-28T02:22:37.223Z,2.53
2022-10-28T02:25:09.278Z,3.03
2022-10-28T02:27:44.077Z,2.93
2022-10-28T02:30:19.853Z,2.70
2022-10-28T02:32:53.129Z,3.17
2022-10-28T02:35:24.662Z,2.90
2022-10-28T02:37:53.896Z,3.27
2022-10-28T02:40:24.696Z,3.40
2022-10-28T02:42:56.480Z,3.63
2022-10-28T02:45:27.316Z,4.13
2022-10-28T02:48:00.026Z,3.80
2022-10-28T02:50:32.453Z,3.93
2022-10-28T02:53:01.777Z,3.60
2022-10-28T02:55:32.976Z,4.20
2022-10-28T02:58:01.664Z,3.80
2022-10-28T03:00:30.174Z,4.30
2022-10-28T03:03:00.084Z,4.93
2022-10-28T03:05:28.763Z,4.83
2022-10-28T03:07:57.321Z,5.20
2022-10-28T03:10:26.238Z,4.77
2022-10-28T03:12:54.813Z,5.30
2022-10-28T03:15:23.393Z,4.80
2022-10-28T03:17:52.206Z,5.00
2022-10-28T03:20:24.397Z,4.37
2022-10-28T03:22:53.204Z,5.00
2022-10-28T03:25:22.030Z,4.63
2022-10-28T03:27:50.473Z,5.10
2022-10-28T03:30:19.613Z,5.17
2022-10-28T03:32:48.181Z,4.80
2022-10-28T03:35:16.798Z,4.73
2022-10-28T03:37:46.753Z,5.50
2022-10-28T03:40:15.339Z,5.17
2022-10-28T03:42:44.045Z,6.63
2022-10-28T03:45:13.141Z,5.07
2022-10-28T03:47:42.010Z,4.40
2022-10-28T03:50:11.086Z,5.10
2022-10-28T03:52:39.609Z,5.10
2022-10-28T03:55:10.015Z,4.77
2022-10-28T03:57:40.033Z,5.20
2022-10-28T04:00:09.207Z,5.00
2022-10-28T04:02:37.658Z,5.43
2022-10-28T04:05:06.407Z,5.07
2022-10-28T04:07:35.002Z,5.03
2022-10-28T04:10:03.438Z,5.70
2022-10-28T04:12:33.380Z,5.17
2022-10-28T04:15:02.006Z,4.33
2022-10-28T04:17:30.433Z,4.30
2022-10-28T04:19:58.863Z,4.10
2022-10-28T04:22:27.543Z,4.27
2022-10-28T04:24:56.078Z,4.63
2022-10-28T04:27:24.507Z,3.60
2022-10-28T04:29:54.610Z,3.73
2022-10-28T04:32:23.025Z,3.30
2022-10-28T04:34:51.433Z,3.90
2022-10-28T04:37:20.743Z,4.27
2022-10-28T04:39:49.470Z,4.27
2022-10-28T04:42:17.921Z,4.20
2022-10-28T04:44:46.479Z,4.00
2022-10-28T04:47:16.277Z,3.73
2022-10-28T04:49:44.697Z,3.83
2022-10-28T04:52:15.657Z,3.43
2022-10-28T04:54:44.425Z,3.50
2022-10-28T04:57:12.907Z,4.53
2022-10-28T04:59:41.565Z,4.30
2022-10-28T05:02:10.103Z,4.73
2022-10-28T05:04:39.997Z,5.07
2022-10-28T05:07:08.858Z,4.93
2022-10-28T05:09:37.266Z,5.03
2022-10-28T05:12:06.720Z,5.50
2022-10-28T05:14:35.379Z,5.40
2022-10-28T05:17:03.801Z,5.10
2022-10-28T05:19:32.214Z,5.57
2022-10-28T05:22:02.231Z,5.00
2022-10-28T05:24:30.672Z,6.10
2022-10-28T05:27:00.939Z,5.37
2022-10-28T05:29:33.194Z,5.50
2022-10-28T05:32:02.305Z,5.43
2022-10-28T05:34:31.040Z,5.30
2022-10-28T05:36:59.437Z,5.13
2022-10-28T05:39:29.238Z,5.70
2022-10-28T05:41:57.910Z,4.60
2022-10-28T05:44:26.334Z,5.33
2022-10-28T05:46:55.779Z,5.20
2022-10-28T05:49:26.995Z,5.33
2022-10-28T05:51:55.417Z,4.73
2022-10-28T05:54:23.846Z,4.57
2022-10-28T05:56:53.869Z,4.87
2022-10-28T05:59:22.362Z,4.63
2022-10-28T06:01:50.821Z,4.33
2022-10-28T06:04:19.627Z,4.53
2022-10-28T06:06:48.069Z,4.17
2022-10-28T06:09:16.502Z,4.50
2022-10-28T06:11:43.632Z,3.93
2022-10-28T06:14:13.830Z,4.10
2022-10-28T06:16:42.398Z,5.10
2022-10-28T06:19:11.050Z,5.80
2022-10-28T06:21:39.461Z,4.37
2022-10-28T06:24:12.168Z,4.30
2022-10-28T06:26:41.294Z,4.17
2022-10-28T06:29:10.828Z,4.37
2022-10-28T06:31:41.052Z,4.00
2022-10-28T06:34:09.682Z,4.17
2022-10-28T06:36:38.327Z,4.27
2022-10-28T06:39:07.118Z,5.97
2022-10-28T06:41:35.923Z,4.70
2022-10-28T06:44:04.483Z,4.80
2022-10-28T06:46:34.542Z,4.20
2022-10-28T06:49:04.908Z,4.30
2022-10-28T06:51:33.567Z,4.20
2022-10-28T06:54:02.044Z,3.87
2022-10-28T06:56:30.853Z,4.40
2022-10-28T06:58:59.412Z,4.23
2022-10-28T07:01:27.958Z,8.93
2022-10-28T07:03:56.508Z,6.03
2022-10-28T07:06:26.491Z,3.60
2022-10-28T07:08:54.914Z,4.17
2022-10-28T07:11:24.352Z,4.53
2022-10-28T07:13:52.884Z,5.13
2022-10-28T07:16:21.437Z,4.90
2022-10-28T07:18:50.091Z,5.07
2022-10-28T07:21:21.752Z,5.00
2022-10-28T07:23:51.688Z,5.23
2022-10-28T07:26:20.299Z,5.13
2022-10-28T07:28:48.713Z,4.77
2022-10-28T07:31:17.510Z,4.53
2022-10-28T07:33:46.180Z,4.60
2022-10-28T07:36:14.598Z,4.70
2022-10-28T07:38:43.149Z,4.33
2022-10-28T07:41:13.173Z,4.60
2022-10-28T07:43:42.628Z,3.97
2022-10-28T07:46:11.176Z,4.23
2022-10-28T07:48:40.125Z,3.50
2022-10-28T07:51:09.242Z,2.23
2022-10-28T07:53:37.931Z,2.10
2022-10-28T07:56:09.693Z,2.20
2022-10-28T07:58:39.589Z,2.20
2022-10-28T08:01:09.063Z,1.90
2022-10-28T08:03:39.008Z,1.63
2022-10-28T08:06:08.703Z,1.53
2022-10-28T08:08:37.673Z,1.40
2022-10-28T08:11:12.844Z,1.50
2022-10-28T08:13:42.796Z,1.60
2022-10-28T08:16:11.432Z,1.60
2022-10-28T08:18:40.367Z,1.40
2022-10-28T08:21:09.388Z,1.17
2022-10-28T08:23:38.363Z,1.60
2022-10-28T08:26:07.508Z,1.50
2022-10-28T08:28:36.144Z,1.30
2022-10-28T08:31:09.505Z,1.67
2022-10-28T08:33:38.451Z,1.87
2022-10-28T08:36:07.124Z,2.27
2022-10-28T08:38:35.928Z,2.30
2022-10-28T08:41:10.083Z,2.00
2022-10-28T08:43:57.268Z,1.70
2022-10-28T08:46:30.586Z,2.43
2022-10-28T08:48:59.144Z,1.87
2022-10-28T08:51:32.672Z,1.97
2022-10-28T08:54:05.000Z,2.20
2022-10-28T08:56:35.432Z,1.90
2022-10-28T08:59:06.548Z,2.10
2022-10-28T09:01:41.522Z,2.10
2022-10-28T09:04:15.100Z,1.80
2022-10-28T09:06:43.644Z,1.73
2022-10-28T09:09:20.075Z,1.60
2022-10-28T09:11:53.814Z,1.77
2022-10-28T09:14:30.690Z,1.80
2022-10-28T09:17:05.148Z,1.60
2022-10-28T09:19:40.512Z,1.53
2022-10-28T09:22:19.856Z,1.50
2022-10-28T09:24:52.710Z,1.50
2022-10-28T09:27:25.112Z,1.50
2022-10-28T09:29:57.692Z,1.23
2022-10-28T09:32:32.973Z,1.43
2022-10-28T09:35:05.523Z,1.50
2022-10-28T09:37:37.092Z,1.20
2022-10-28T09:40:11.756Z,1.30
2022-10-28T09:42:43.037Z,1.10
2022-10-28T09:45:14.781Z,1.10
2022-10-28T09:47:46.764Z,1.30
2022-10-28T09:50:16.923Z,1.03
2022-10-28T09:52:55.353Z,1.00
2022-10-28T09:55:24.548Z,0.90
2022-10-28T09:57:53.305Z,0.90
2022-10-28T10:00:22.201Z,1.00
2022-10-28T10:02:54.208Z,1.10
2022-10-28T10:05:22.722Z,1.13
2022-10-28T10:07:53.193Z,0.90
2022-10-28T10:10:24.435Z,1.10
2022-10-28T10:12:54.249Z,1.20
2022-10-28T10:15:29.348Z,0.90
2022-10-28T10:18:00.029Z,1.10
2022-10-28T10:20:28.506Z,1.00
2022-10-28T10:22:57.301Z,1.10
2022-10-28T10:25:32.780Z,1.10
2022-10-28T10:28:02.593Z,1.43
2022-10-28T10:30:32.453Z,1.17
2022-10-28T10:33:03.165Z,0.90
2022-10-28T10:35:32.607Z,1.13
2022-10-28T10:38:02.447Z,1.00
2022-10-28T10:40:32.284Z,0.80
2022-10-28T10:43:23.732Z,1.00
2022-10-28T10:46:01.151Z,1.07
2022-10-28T10:48:32.520Z,1.00
2022-10-28T10:51:06.288Z,1.10
2022-10-28T10:53:35.189Z,0.97
2022-10-28T10:56:04.364Z,1.10
2022-10-28T10:58:34.203Z,1.20
2022-10-28T11:01:04.345Z,1.13
2022-10-28T11:03:36.879Z,1.20
2022-10-28T11:06:24.216Z,1.10
2022-10-28T11:08:57.229Z,1.43
2022-10-28T11:11:33.331Z,1.30
2022-10-28T11:14:04.760Z,1.40
2022-10-28T11:16:33.232Z,1.23
2022-10-28T11:19:16.964Z,1.37
2022-10-28T11:21:50.286Z,1.30
2022-10-28T11:24:27.590Z,1.50
2022-10-28T11:27:01.146Z,1.33
2022-10-28T11:29:29.859Z,1.20
2022-10-28T11:32:12.253Z,1.73
2022-10-28T11:34:51.335Z,1.50
2022-10-28T11:37:23.815Z,1.77
2022-10-28T11:39:58.769Z,1.90
2022-10-28T11:42:32.491Z,1.70
2022-10-28T11:45:03.826Z,1.80
2022-10-28T11:47:41.158Z,1.80
2022-10-28T11:50:15.857Z,1.93
2022-10-28T11:52:51.765Z,1.80
2022-10-28T11:55:22.959Z,1.47
2022-10-28T11:57:58.011Z,1.70
2022-10-28T12:00:42.435Z,1.63
2022-10-28T12:03:17.718Z,1.50
2022-10-28T12:05:49.544Z,1.73
2022-10-28T12:08:25.328Z,1.40
2022-10-28T12:11:01.354Z,2.07
2022-10-28T12:13:32.773Z,1.70
2022-10-28T12:16:04.583Z,1.93
2022-10-28T12:18:34.752Z,1.80
2022-10-28T12:21:08.465Z,1.77
2022-10-28T12:23:39.761Z,1.87
2022-10-28T12:26:10.383Z,1.73
2022-10-28T12:28:42.726Z,1.40
2022-10-28T12:31:15.084Z,1.60
2022-10-28T12:33:45.808Z,1.57
2022-10-28T12:36:25.179Z,1.57
2022-10-28T12:38:55.993Z,1.50
2022-10-28T12:41:26.359Z,1.50
2022-10-28T12:43:56.207Z,1.53
2022-10-28T12:46:28.593Z,1.50
2022-10-28T12:48:58.159Z,1.70
2022-10-28T12:51:30.890Z,1.47
2022-10-28T12:54:02.495Z,1.50
2022-10-28T12:56:33.910Z,1.40
2022-10-28T12:59:06.083Z,1.60
2022-10-28T13:01:35.543Z,1.30
2022-10-28T13:04:04.572Z,1.50
2022-10-28T13:06:50.164Z,1.33
2022-10-28T13:09:26.519Z,1.30
2022-10-28T13:12:08.211Z,1.40
2022-10-28T13:14:54.655Z,1.20
2022-10-28T13:17:29.511Z,1.10
2022-10-28T13:20:09.603Z,1.20
2022-10-28T13:22:46.415Z,1.17
2022-10-28T13:25:34.126Z,1.10
2022-10-28T13:28:02.941Z,1.10
2022-10-28T13:30:32.193Z,1.00
2022-10-28T13:33:05.375Z,1.23
2022-10-28T13:35:34.068Z,1.10
2022-10-28T13:38:04.215Z,1.10
2022-10-28T13:40:51.193Z,1.07
2022-10-28T13:43:20.963Z,1.00
2022-10-28T13:45:50.563Z,1.00
2022-10-28T13:48:45.519Z,0.87
2022-10-28T13:51:32.908Z,1.00
2022-10-28T13:54:02.992Z,0.80
2022-10-28T13:56:38.660Z,1.00
2022-10-28T13:59:08.422Z,0.87
2022-10-28T14:02:32.462Z,0.80
2022-10-28T14:04:59.692Z,0.70
2022-10-28T14:07:32.480Z,0.80
2022-10-28T14:10:20.032Z,0.80
2022-10-28T14:12:49.980Z,0.83
2022-10-28T14:15:25.001Z,0.80
2022-10-28T14:18:01.018Z,0.90
2022-10-28T14:20:40.060Z,0.90
2022-10-28T14:23:26.316Z,1.10
2022-10-28T14:26:04.799Z,0.90
2022-10-28T14:28:54.596Z,1.07
2022-10-28T14:31:42.531Z,1.10
2022-10-28T14:34:29.257Z,1.40
2022-10-28T14:37:01.376Z,1.37
2022-10-28T14:39:40.383Z,1.30
2022-10-28T14:42:23.571Z,1.10
2022-10-28T14:45:03.388Z,1.10
2022-10-28T14:47:51.742Z,1.27
2022-10-28T14:50:23.260Z,1.10
2022-10-28T14:52:52.448Z,1.00
2022-10-28T14:55:22.951Z,1.10
2022-10-28T14:57:55.049Z,1.10
2022-10-28T15:00:29.137Z,1.00
2022-10-28T15:02:57.617Z,1.20
2022-10-28T15:05:32.426Z,0.90
2022-10-28T15:08:04.256Z,0.80
2022-10-28T15:10:34.612Z,0.80
2022-10-28T15:13:04.805Z,0.97
2022-10-28T15:15:34.974Z,0.90
2022-10-28T15:18:03.805Z,0.87
2022-10-28T15:20:34.090Z,0.90
2022-10-28T15:23:13.551Z,0.97
2022-10-28T15:25:42.018Z,1.00
2022-10-28T15:28:12.885Z,1.83
2022-10-28T15:30:46.422Z,1.40
2022-10-28T15:33:22.898Z,1.27
2022-10-28T15:35:51.981Z,1.00
2022-10-28T15:38:32.620Z,1.07
2022-10-28T15:41:01.486Z,0.93
2022-10-28T15:43:32.704Z,0.90
2022-10-28T15:46:11.213Z,0.70
2022-10-28T15:48:39.960Z,0.90
2022-10-28T15:51:15.681Z,1.00
2022-10-28T15:53:44.364Z,0.80
2022-10-28T15:56:22.886Z,0.80
2022-10-28T15:59:04.284Z,0.80
2022-10-28T16:01:39.171Z,0.70
2022-10-28T16:04:08.552Z,0.80
2022-10-28T16:06:38.012Z,0.70
2022-10-28T16:09:08.101Z,0.80
2022-10-28T16:11:39.404Z,1.00
2022-10-28T16:14:25.328Z,0.70
2022-10-28T16:16:53.999Z,0.60
2022-10-28T16:19:27.568Z,0.80
2022-10-28T16:21:56.179Z,0.70
2022-10-28T16:24:24.721Z,0.60
2022-10-28T16:26:53.267Z,0.60
2022-10-28T16:29:23.083Z,0.50
2022-10-28T16:31:53.515Z,0.80
2022-10-28T16:34:22.065Z,0.73
2022-10-28T16:36:50.524Z,0.63
2022-10-28T16:39:19.072Z,0.53
2022-10-28T16:41:48.371Z,0.40
2022-10-28T16:44:18.411Z,0.80
2022-10-28T16:46:48.368Z,0.67
2022-10-28T16:49:16.940Z,0.70
2022-10-28T16:51:45.960Z,0.60
2022-10-28T16:54:14.505Z,0.70
2022-10-28T16:56:43.140Z,0.73
2022-10-28T16:59:11.896Z,0.70
2022-10-28T17:01:40.650Z,0.60
2022-10-28T17:04:11.250Z,0.57
2022-10-28T17:06:39.663Z,0.53
2022-10-28T17:09:08.205Z,0.80
2022-10-28T17:11:36.949Z,1.33
2022-10-28T17:14:05.395Z,0.67
2022-10-28T17:16:35.156Z,0.60
2022-10-28T17:19:05.671Z,0.70
2022-10-28T17:21:35.520Z,0.50
2022-10-28T17:24:05.536Z,0.70
2022-10-28T17:26:34.175Z,0.40
2022-10-28T17:29:02.605Z,0.70
2022-10-28T17:31:31.086Z,0.60
2022-10-28T17:33:59.719Z,1.20
2022-10-28T17:36:28.141Z,0.50
2022-10-28T17:38:58.167Z,1.10
2022-10-28T17:41:26.856Z,0.70
2022-10-28T17:43:55.410Z,0.60
2022-10-28T17:46:23.882Z,0.70
2022-10-28T17:48:52.535Z,0.50
2022-10-28T17:51:22.345Z,0.33
2022-10-28T17:53:55.032Z,0.70
2022-10-28T17:56:25.132Z,0.50
2022-10-28T17:58:54.238Z,0.60
2022-10-28T18:01:22.974Z,0.50
2022-10-28T18:03:51.799Z,0.60
2022-10-28T18:06:20.246Z,0.90
2022-10-28T18:11:22.846Z,0.53
2022-10-28T18:13:53.722Z,1.67
2022-10-28T18:16:24.387Z,0.77
2022-10-28T18:18:53.821Z,0.60
2022-10-28T18:21:22.520Z,0.60
2022-10-28T18:23:53.476Z,0.80
2022-10-28T18:26:22.492Z,0.50
2022-10-28T18:28:51.244Z,0.80
2022-10-28T18:31:21.512Z,0.57
2022-10-28T18:33:50.383Z,0.70
2022-10-28T18:36:20.119Z,0.80
2022-10-28T18:38:48.875Z,0.80
2022-10-28T18:41:18.675Z,0.80
2022-10-28T18:43:47.672Z,0.60
2022-10-28T18:46:16.304Z,0.80
2022-10-28T18:48:46.273Z,1.10
2022-10-28T18:51:15.220Z,0.90
2022-10-28T18:53:44.836Z,0.90
2022-10-28T18:56:13.976Z,0.80
2022-10-28T18:58:43.008Z,0.93
2022-10-28T19:01:12.508Z,1.00
2022-10-28T19:03:41.495Z,0.97
2022-10-28T19:06:12.537Z,0.83
2022-10-28T19:08:41.375Z,1.10
2022-10-28T19:11:11.287Z,0.90
2022-10-28T19:13:41.075Z,0.80
2022-10-28T19:16:10.079Z,0.93
2022-10-28T19:18:38.598Z,0.83
2022-10-28T19:21:08.487Z,0.90
2022-10-28T19:23:38.569Z,1.07
2022-10-28T19:26:07.279Z,0.87
2022-10-28T19:28:39.629Z,0.90
2022-10-28T19:31:09.104Z,0.70
2022-10-28T19:33:39.281Z,0.80
2022-10-28T19:36:08.966Z,0.80
2022-10-28T19:38:39.607Z,1.00
2022-10-28T19:41:09.071Z,0.73
2022-10-28T19:43:37.915Z,0.87
2022-10-28T19:46:07.393Z,0.60
2022-10-28T19:48:35.945Z,0.70
2022-10-28T19:51:04.696Z,0.80
2022-10-28T19:53:33.304Z,0.63
2022-10-28T19:56:03.909Z,0.80
2022-10-28T19:58:33.000Z,0.60
2022-10-28T20:01:02.219Z,0.67
2022-10-28T20:03:34.355Z,0.73
2022-10-28T20:06:04.551Z,0.80
2022-10-28T20:08:34.869Z,0.87
2022-10-28T20:11:05.726Z,0.70
2022-10-28T20:13:34.660Z,0.80
2022-10-28T20:16:03.896Z,0.80
2022-10-28T20:18:32.694Z,1.00
2022-10-28T20:21:05.193Z,1.10
2022-10-28T20:23:35.895Z,0.90
2022-10-28T20:26:06.955Z,0.90
2022-10-28T20:28:35.667Z,1.83
2022-10-28T20:31:04.967Z,1.10
2022-10-28T20:33:33.513Z,1.20
2022-10-28T20:36:01.954Z,1.20
2022-10-28T20:38:30.783Z,1.50
2022-10-28T20:41:00.026Z,1.20
2022-10-28T20:43:30.741Z,1.53
2022-10-28T20:46:00.570Z,1.70
2022-10-28T20:48:29.562Z,1.60
2022-10-28T20:50:58.772Z,1.77
2022-10-28T20:53:28.080Z,1.63
2022-10-28T20:55:57.853Z,1.73
2022-10-28T20:58:27.094Z,1.67
2022-10-28T21:00:57.207Z,1.90
2022-10-28T21:03:25.679Z,2.13
2022-10-28T21:05:54.113Z,2.50
2022-10-28T21:08:22.663Z,2.67
2022-10-28T21:10:51.248Z,2.80
2022-10-28T21:13:19.688Z,3.03
2022-10-28T21:15:51.825Z,3.17
2022-10-28T21:18:23.162Z,3.27
2022-10-28T21:20:56.890Z,3.30
2022-10-28T21:23:25.487Z,3.60
2022-10-28T21:25:54.464Z,3.47
2022-10-28T21:28:23.153Z,3.83
2022-10-28T21:30:51.659Z,3.47
2022-10-28T21:33:20.112Z,3.10
2022-10-28T21:35:58.210Z,3.27
2022-10-28T21:38:27.149Z,2.90
2022-10-28T21:41:02.305Z,3.07
2022-10-28T21:43:31.425Z,3.20
2022-10-28T21:46:00.189Z,3.07
2022-10-28T21:48:28.985Z,2.83
2022-10-28T21:50:59.785Z,2.80
2022-10-28T21:53:28.837Z,2.80
2022-10-28T21:56:03.585Z,2.60
2022-10-28T21:58:32.167Z,2.77
2022-10-28T22:01:04.404Z,2.67
2022-10-28T22:03:32.833Z,2.87
2022-10-28T22:06:02.644Z,3.17
2022-10-28T22:08:31.671Z,2.50
2022-10-28T22:11:01.111Z,2.57
2022-10-28T22:13:29.576Z,2.57
2022-10-28T22:15:59.439Z,2.30
2022-10-28T22:18:27.895Z,2.37
2022-10-28T22:20:56.464Z,1.90
2022-10-28T22:23:26.455Z,2.07
2022-10-28T22:25:54.860Z,2.33
2022-10-28T22:28:23.269Z,3.03
2022-10-28T22:30:51.908Z,2.10
2022-10-28T22:33:20.478Z,2.80
2022-10-28T22:35:57.569Z,3.13
2022-10-28T22:38:27.684Z,3.40
2022-10-28T22:41:14.136Z,3.97
2022-10-28T22:43:42.889Z,4.70
2022-10-28T22:46:11.950Z,5.30
2022-10-28T22:48:40.906Z,4.67
2022-10-28T22:51:10.440Z,4.23
2022-10-28T22:53:40.393Z,4.60
2022-10-28T22:56:09.720Z,3.83
2022-10-28T22:58:38.171Z,2.83
2022-10-28T23:01:07.307Z,3.17
2022-10-28T23:03:37.672Z,3.03
2022-10-28T23:06:06.517Z,2.60
2022-10-28T23:08:35.397Z,3.20
2022-10-28T23:11:05.515Z,3.20
2022-10-28T23:13:34.190Z,3.10
2022-10-28T23:16:05.872Z,3.20
2022-10-28T23:18:34.442Z,2.70
2022-10-28T23:21:06.831Z,2.73
2022-10-28T23:23:35.669Z,2.50
2022-10-28T23:26:05.791Z,2.07
2022-10-28T23:28:34.245Z,2.07
2022-10-28T23:31:03.033Z,1.77
2022-10-28T23:33:31.566Z,1.90
2022-10-28T23:36:00.460Z,1.70
2022-10-28T23:38:29.128Z,2.07
2022-10-28T23:40:58.561Z,1.63
2022-10-28T23:43:28.417Z,1.47
2022-10-28T23:45:57.204Z,1.50
2022-10-28T23:48:26.127Z,1.60
2022-10-28T23:50:54.699Z,1.47
2022-10-28T23:53:23.668Z,1.80
2022-10-28T23:55:52.568Z,1.60
2022-10-28T23:58:22.767Z,1.70
